Language selection

My Weather Profile Weather Topics  | 

Pacific - North Coast: Past 24 Hour Conditions

 

West Dixon Entrance - 46205

12:00 PM PDT 23 July 2021Buoy position: 54.17N 134.28W
Disclaimer

This table is a summary of hourly weather conditions for the past 24 hours.
Please note that these observations might not always be representative of weather conditions over their associated marine area.

Date / Time
(PDT)
Wind(knots) Wave height(m) Wave period(s) Pressure(kPa) Air tempC) Water tempC)
23 July 2021
12:00 S 8 gust 10 1.8 8.0 101.7 13 13
11:00 S 16 gust 17 1.8 7.0 101.7 13 13
10:00 S 13 gust 16 1.9 7.0 101.6 13 13
9:00 SSW 13 gust 16 1.9 7.0 101.5 13 13
8:00 S 13 gust 16 1.8 8.0 101.5 13 13
7:00 S 13 gust 16 1.8 7.0 101.4 13 13
6:00 S 12 gust 16 1.8 6.0 101.4 13 13
5:00 SSW 13 gust 19 2.0 7.0 101.3 13 13
4:00 SSW 12 gust 16 1.9 7.0 101.3 13 13
3:00 SSW 13 gust 17 1.8 7.0 101.3 13 13
2:00 N/A N/A N/A N/A N/A N/A
1:00 S 12 gust 16 1.6 7.0 101.2 13 13
0:00 S 16 gust 17 1.8 7.0 101.2 13 13
22 July 2021
23:00 S 13 gust 16 2.1 7.0 101.2 13 13
22:00 S 13 gust 16 2.2 7.0 101.1 13 13
21:00 S 12 gust 13 2.7 7.0 101.1 13 14
20:00 SE 16 gust 17 3.0 7.0 101.1 13 14
19:00 ESE 23 gust 29 2.8 7.0 101.1 13 14
18:00 ESE 25 gust 33 3.0 7.0 101.1 13 14
17:00 ESE 25 gust 31 2.9 7.0 101.2 14 14
16:00 SE 25 gust 31 2.4 7.0 101.2 14 14
15:00 SE 23 gust 29 2.3 6.0 101.2 13 14
14:00 SSE 22 gust 25 2.0 6.0 101.3 14 14
13:00 SE 22 gust 27 1.8 5.0 101.3 14 14
12:00 SE 22 gust 27 1.5 5.0 101.3 14 14

Zoom-in to make a selection

Map of Pacific - North Coast marine weather areas Middle Nomad - 46004 South Nomad - 46036 Dixon Entrance Central - 46145 South Moresby - 46147 Nanakwa Shoal - 46181 North Hecate Strait - 46183 North Nomad - 46184 South Hecate Strait - 46185 West Sea Otter - 46204 West Dixon Entrance - 46205 East Dellwood - 46207 West Moresby - 46208 Sartine Island Cape St.James Kindakun Rocks Langara Island Masset Municipal Airport Rose Spit Sandspit Airport Bella Bella Airport Bella Coola Airport Bonilla Island Cathedral Point Cumshewa Island Grey Islet Holland Rock Lucy Islands Lightstation Prince Rupert Airport
Legend:
buoy Buoy
land station Land Station

Pacific - North Coast Area

Another Region

What we are doing

Date modified: